createdAt,value
2017-11-03T00:00:36.035Z,9.40
2017-11-03T00:03:03.265Z,9.40
2017-11-03T00:05:29.838Z,9.40
2017-11-03T00:07:56.268Z,9.50
2017-11-03T00:10:22.734Z,9.50
2017-11-03T00:12:49.178Z,9.40
2017-11-03T00:15:15.598Z,9.40
2017-11-03T00:17:42.046Z,9.30
2017-11-03T00:20:08.530Z,9.20
2017-11-03T00:22:34.963Z,9.20
2017-11-03T00:25:02.172Z,9.20
2017-11-03T00:27:28.636Z,9.20
2017-11-03T00:29:55.103Z,9.20
2017-11-03T00:32:21.557Z,9.20
2017-11-03T00:34:48.030Z,9.20
2017-11-03T00:37:14.466Z,9.20
2017-11-03T00:39:40.895Z,9.30
2017-11-03T00:42:07.335Z,9.30
2017-11-03T00:44:34.318Z,9.20
2017-11-03T00:47:00.794Z,9.30
2017-11-03T00:49:27.249Z,9.30
2017-11-03T00:51:53.669Z,9.30
2017-11-03T00:54:20.173Z,9.20
2017-11-03T00:56:46.601Z,9.20
2017-11-03T00:59:13.061Z,9.10
2017-11-03T01:01:39.506Z,9.10
2017-11-03T01:04:05.930Z,9.10
2017-11-03T01:06:32.450Z,9.00
2017-11-03T01:08:58.905Z,9.00
2017-11-03T01:11:25.366Z,8.90
2017-11-03T01:13:51.856Z,8.90
2017-11-03T01:16:18.345Z,8.90
2017-11-03T01:18:44.761Z,8.90
2017-11-03T01:21:11.965Z,9.00
2017-11-03T01:23:38.382Z,9.00
2017-11-03T01:26:04.838Z,9.00
2017-11-03T01:28:31.286Z,9.00
2017-11-03T01:30:57.785Z,9.00
2017-11-03T01:33:24.226Z,9.00
2017-11-03T01:35:50.706Z,9.00
2017-11-03T01:38:17.181Z,9.00
2017-11-03T01:40:43.610Z,9.00
2017-11-03T01:43:10.842Z,9.00
2017-11-03T01:45:38.046Z,9.00
2017-11-03T01:48:04.501Z,9.00
2017-11-03T01:50:30.957Z,9.00
2017-11-03T01:52:58.143Z,8.90
2017-11-03T01:55:24.570Z,8.90
2017-11-03T01:57:51.010Z,8.90
2017-11-03T02:00:17.454Z,8.90
2017-11-03T02:02:43.947Z,8.90
2017-11-03T02:05:10.421Z,8.90
2017-11-03T02:07:36.853Z,8.90
2017-11-03T02:10:03.337Z,8.90
2017-11-03T02:12:30.582Z,8.90
2017-11-03T02:14:57.049Z,8.80
2017-11-03T02:17:23.529Z,8.90
2017-11-03T02:19:50.050Z,8.90
2017-11-03T02:22:16.531Z,8.90
2017-11-03T02:24:42.992Z,8.80
2017-11-03T02:27:09.456Z,8.90
2017-11-03T02:29:36.007Z,8.80
2017-11-03T02:32:03.237Z,8.80
2017-11-03T02:34:29.708Z,8.80
2017-11-03T02:36:56.197Z,8.80
2017-11-03T02:39:22.689Z,8.80
2017-11-03T02:41:49.862Z,8.80
2017-11-03T02:44:16.293Z,8.80
2017-11-03T02:46:42.780Z,8.60
2017-11-03T02:49:09.189Z,8.50
2017-11-03T02:51:35.646Z,8.50
2017-11-03T02:54:02.081Z,8.50
2017-11-03T02:56:29.308Z,8.50
2017-11-03T02:58:55.758Z,8.50
2017-11-03T03:01:22.249Z,8.60
2017-11-03T03:03:48.702Z,8.50
2017-11-03T03:06:15.147Z,8.50
2017-11-03T03:08:41.567Z,8.50
2017-11-03T03:11:08.004Z,8.60
2017-11-03T03:13:34.427Z,8.60
2017-11-03T03:16:00.917Z,8.70
2017-11-03T03:18:28.221Z,8.60
2017-11-03T03:20:54.688Z,8.60
2017-11-03T03:23:21.926Z,8.50
2017-11-03T03:25:48.422Z,8.50
2017-11-03T03:28:14.911Z,8.60
2017-11-03T03:30:43.158Z,8.70
2017-11-03T03:33:09.645Z,8.70
2017-11-03T03:35:36.102Z,8.70
2017-11-03T03:38:02.636Z,8.70
2017-11-03T03:40:29.129Z,8.70
2017-11-03T03:42:55.596Z,8.70
2017-11-03T03:45:22.082Z,8.60
2017-11-03T03:47:49.324Z,8.60
2017-11-03T03:50:15.834Z,8.60
2017-11-03T03:52:42.335Z,8.60
2017-11-03T03:55:09.570Z,8.50
2017-11-03T03:57:36.030Z,8.40
2017-11-03T04:00:02.543Z,8.40
2017-11-03T04:02:29.049Z,8.50
2017-11-03T04:04:55.518Z,8.40
2017-11-03T04:07:22.734Z,8.30
2017-11-03T04:09:49.947Z,8.30
2017-11-03T04:12:16.421Z,8.30
2017-11-03T04:14:42.857Z,8.20
2017-11-03T04:17:10.075Z,8.20
2017-11-03T04:19:36.522Z,8.10
2017-11-03T04:22:02.983Z,8.20
2017-11-03T04:24:30.195Z,8.30
2017-11-03T04:26:57.422Z,8.30
2017-11-03T04:29:23.894Z,8.30
2017-11-03T04:31:50.395Z,8.40
2017-11-03T04:34:16.890Z,8.40
2017-11-03T04:36:43.390Z,8.40
2017-11-03T04:39:09.897Z,8.30
2017-11-03T04:41:36.362Z,8.20
2017-11-03T04:44:02.906Z,8.20
2017-11-03T04:46:29.434Z,8.10
2017-11-03T04:48:55.900Z,8.00
2017-11-03T04:51:23.162Z,8.10
2017-11-03T04:53:50.379Z,8.10
2017-11-03T04:56:16.869Z,8.00
2017-11-03T04:58:43.349Z,8.00
2017-11-03T05:01:09.801Z,8.00
2017-11-03T05:03:37.008Z,8.10
2017-11-03T05:06:03.427Z,8.00
2017-11-03T05:08:29.890Z,8.10
2017-11-03T05:10:56.330Z,8.10
2017-11-03T05:13:22.819Z,8.10
2017-11-03T05:15:50.054Z,8.30
2017-11-03T05:18:17.274Z,8.30
2017-11-03T05:20:43.763Z,8.30
2017-11-03T05:23:10.931Z,8.40
2017-11-03T05:25:37.349Z,8.40
2017-11-03T05:28:03.785Z,8.40
2017-11-03T05:30:30.259Z,8.40
2017-11-03T05:32:56.753Z,8.30
2017-11-03T05:35:23.276Z,8.30
2017-11-03T05:37:49.847Z,8.40
2017-11-03T05:40:16.293Z,8.40
2017-11-03T05:42:42.798Z,8.30
2017-11-03T05:45:09.261Z,8.40
2017-11-03T05:47:35.845Z,8.40
2017-11-03T05:50:03.101Z,8.30
2017-11-03T05:52:29.563Z,8.30
2017-11-03T05:54:56.046Z,8.30
2017-11-03T05:57:22.558Z,8.40
2017-11-03T05:59:48.997Z,8.40
2017-11-03T06:02:15.657Z,8.30
2017-11-03T06:04:42.858Z,8.30
2017-11-03T06:07:09.292Z,8.30
2017-11-03T06:09:35.724Z,8.30
2017-11-03T06:12:02.201Z,8.30
2017-11-03T06:14:28.677Z,8.30
2017-11-03T06:16:55.126Z,8.30
2017-11-03T06:19:21.587Z,8.30
2017-11-03T06:21:48.024Z,8.30
2017-11-03T06:24:15.240Z,8.30
2017-11-03T06:26:41.674Z,8.30
2017-11-03T06:29:08.129Z,8.30
2017-11-03T06:31:35.293Z,8.10
2017-11-03T06:34:01.721Z,8.10
2017-11-03T06:36:28.161Z,8.00
2017-11-03T06:38:55.357Z,8.00
2017-11-03T06:41:21.856Z,8.00
2017-11-03T06:43:49.072Z,8.00
2017-11-03T06:46:15.552Z,8.00
2017-11-03T06:48:42.058Z,8.00
2017-11-03T06:51:08.482Z,8.00
2017-11-03T06:53:35.721Z,8.10
2017-11-03T06:56:02.180Z,8.10
2017-11-03T06:58:28.649Z,8.20
2017-11-03T07:00:55.198Z,8.20
2017-11-03T07:03:21.754Z,8.30
2017-11-03T07:05:48.243Z,8.30
2017-11-03T07:08:14.748Z,8.40
2017-11-03T07:10:41.226Z,8.50
2017-11-03T07:13:07.714Z,8.60
2017-11-03T07:15:34.186Z,8.60
2017-11-03T07:18:00.618Z,8.70
2017-11-03T07:20:27.162Z,8.70
2017-11-03T07:22:53.623Z,8.70
2017-11-03T07:25:20.073Z,8.80
2017-11-03T07:27:46.513Z,8.80
2017-11-03T07:30:12.954Z,8.80
2017-11-03T07:32:40.165Z,8.80
2017-11-03T07:35:06.590Z,8.80
2017-11-03T07:37:33.152Z,8.80
2017-11-03T07:39:59.606Z,9.00
2017-11-03T07:42:26.150Z,9.10
2017-11-03T07:44:52.587Z,9.20
2017-11-03T07:47:19.055Z,9.20
2017-11-03T07:49:45.549Z,9.30
2017-11-03T07:52:11.975Z,9.40
2017-11-03T07:54:38.432Z,9.50
2017-11-03T07:57:04.952Z,9.50
2017-11-03T07:59:31.393Z,9.70
2017-11-03T08:01:57.885Z,9.80
2017-11-03T08:04:24.323Z,9.90
2017-11-03T08:06:50.757Z,10.00
2017-11-03T08:09:17.230Z,10.00
2017-11-03T08:11:43.698Z,10.00
2017-11-03T08:14:10.149Z,10.00
2017-11-03T08:16:36.567Z,10.10
2017-11-03T08:19:03.036Z,10.20
2017-11-03T08:21:29.477Z,10.30
2017-11-03T08:23:56.051Z,10.30
2017-11-03T08:26:22.518Z,10.30
2017-11-03T08:28:49.270Z,10.40
2017-11-03T08:31:15.795Z,10.40
2017-11-03T08:33:42.336Z,10.50
2017-11-03T08:36:08.828Z,10.60
2017-11-03T08:38:35.322Z,10.70
2017-11-03T08:41:01.768Z,10.90
2017-11-03T08:43:28.207Z,11.00
2017-11-03T08:45:54.650Z,11.10
2017-11-03T08:48:21.125Z,11.00
2017-11-03T08:50:48.313Z,11.00
2017-11-03T08:53:14.773Z,11.00
2017-11-03T08:55:41.969Z,11.60
2017-11-03T08:58:08.492Z,11.50
2017-11-03T09:00:34.957Z,11.70
2017-11-03T09:03:01.457Z,11.70
2017-11-03T09:05:27.992Z,11.70
2017-11-03T09:07:54.502Z,11.70
2017-11-03T09:10:20.993Z,11.80
2017-11-03T09:12:47.475Z,11.90
2017-11-03T09:15:13.926Z,11.90
2017-11-03T09:17:40.436Z,12.00
2017-11-03T09:20:06.929Z,12.20
2017-11-03T09:22:34.194Z,13.40
2017-11-03T09:25:00.686Z,13.40
2017-11-03T09:27:27.209Z,14.30
2017-11-03T09:29:53.702Z,17.00
2017-11-03T09:32:21.003Z,22.30
2017-11-03T09:34:47.751Z,22.20
2017-11-03T09:37:14.286Z,23.90
2017-11-03T09:39:40.790Z,24.90
2017-11-03T09:42:07.322Z,24.80
2017-11-03T09:44:33.762Z,22.10
2017-11-03T09:47:00.269Z,21.90
2017-11-03T09:49:27.506Z,21.20
2017-11-03T09:51:53.974Z,21.20
2017-11-03T09:54:20.490Z,21.80
2017-11-03T09:56:46.990Z,21.60
2017-11-03T09:59:14.235Z,21.10
2017-11-03T10:01:40.698Z,21.00
2017-11-03T10:04:07.156Z,21.20
2017-11-03T10:06:33.606Z,21.20
2017-11-03T10:09:00.942Z,21.60
2017-11-03T10:11:28.201Z,21.80
2017-11-03T10:13:54.725Z,21.70
2017-11-03T10:16:21.267Z,21.30
2017-11-03T10:18:47.752Z,20.10
2017-11-03T10:21:14.272Z,19.80
2017-11-03T10:23:40.734Z,20.10
2017-11-03T10:26:07.335Z,20.60
2017-11-03T10:28:33.893Z,21.70
2017-11-03T10:31:00.361Z,21.00
2017-11-03T10:33:27.568Z,18.60
2017-11-03T10:35:54.000Z,18.50
2017-11-03T10:38:20.545Z,18.20
2017-11-03T10:40:47.078Z,17.80
2017-11-03T10:43:13.543Z,17.40
2017-11-03T10:45:40.064Z,17.00
2017-11-03T10:48:07.262Z,17.90
2017-11-03T10:50:33.806Z,17.90
2017-11-03T10:53:00.290Z,20.10
2017-11-03T10:55:26.799Z,19.80
2017-11-03T10:57:53.262Z,20.30
2017-11-03T11:00:19.821Z,22.20
2017-11-03T11:02:46.330Z,23.30
2017-11-03T11:05:13.623Z,25.30
2017-11-03T11:07:40.102Z,25.30
2017-11-03T11:10:06.618Z,24.10
2017-11-03T11:12:33.102Z,21.90
2017-11-03T11:15:00.294Z,19.80
2017-11-03T11:17:26.797Z,19.70
2017-11-03T11:19:53.306Z,19.20
2017-11-03T11:22:20.570Z,18.30
2017-11-03T11:24:47.788Z,18.20
2017-11-03T11:27:15.221Z,18.10
2017-11-03T11:29:41.739Z,17.60
2017-11-03T11:32:08.232Z,17.40
2017-11-03T11:34:35.502Z,16.50
2017-11-03T11:37:01.999Z,16.50
2017-11-03T11:39:29.277Z,16.20
2017-11-03T11:41:55.765Z,16.20
2017-11-03T11:44:22.335Z,16.10
2017-11-03T11:46:48.899Z,16.00
2017-11-03T11:49:15.428Z,16.00
2017-11-03T11:51:41.958Z,15.90
2017-11-03T11:54:09.171Z,15.50
2017-11-03T11:56:35.719Z,15.40
2017-11-03T11:59:03.101Z,15.40
2017-11-03T12:01:29.643Z,15.30
2017-11-03T12:03:56.162Z,15.40
2017-11-03T12:06:23.397Z,15.30
2017-11-03T12:08:49.957Z,15.30
2017-11-03T12:11:16.461Z,15.20
2017-11-03T12:13:43.809Z,15.20
2017-11-03T12:16:10.345Z,15.20
2017-11-03T12:18:36.965Z,15.30
2017-11-03T12:21:03.536Z,15.50
2017-11-03T12:23:30.055Z,15.80
2017-11-03T12:25:57.402Z,15.60
2017-11-03T12:28:23.957Z,15.60
2017-11-03T12:30:51.181Z,15.20
2017-11-03T12:33:17.725Z,15.20
2017-11-03T12:35:47.806Z,15.40
2017-11-03T12:38:14.422Z,15.40
2017-11-03T12:40:41.665Z,15.30
2017-11-03T12:43:08.908Z,15.20
2017-11-03T12:45:36.277Z,15.40
2017-11-03T12:48:02.782Z,15.40
2017-11-03T12:50:29.320Z,15.40
2017-11-03T12:52:56.612Z,15.40
2017-11-03T12:55:23.162Z,15.30
2017-11-03T12:57:49.709Z,15.20
2017-11-03T13:00:16.221Z,15.20
2017-11-03T13:02:42.761Z,15.30
2017-11-03T13:05:11.032Z,15.20
2017-11-03T13:07:38.492Z,15.10
2017-11-03T13:10:05.729Z,14.70
2017-11-03T13:12:32.267Z,14.70
2017-11-03T13:14:58.797Z,14.40
2017-11-03T13:17:25.382Z,14.10
2017-11-03T13:19:51.928Z,14.10
2017-11-03T13:22:18.484Z,14.00
2017-11-03T13:24:44.990Z,14.20
2017-11-03T13:27:11.535Z,14.50
2017-11-03T13:29:38.103Z,14.70
2017-11-03T13:32:04.667Z,15.00
2017-11-03T13:34:31.158Z,15.00
2017-11-03T13:36:58.419Z,15.10
2017-11-03T13:39:25.698Z,15.00
2017-11-03T13:41:52.325Z,14.90
2017-11-03T13:44:18.901Z,14.90
2017-11-03T13:46:45.402Z,15.00
2017-11-03T13:49:11.926Z,15.00
2017-11-03T13:51:38.496Z,14.60
2017-11-03T13:54:04.972Z,14.60
2017-11-03T13:56:32.231Z,14.50
2017-11-03T13:58:59.566Z,14.50
2017-11-03T14:01:27.067Z,14.50
2017-11-03T14:03:54.321Z,14.50
2017-11-03T14:06:20.858Z,14.50
2017-11-03T14:08:47.417Z,14.50
2017-11-03T14:11:13.996Z,14.50
2017-11-03T14:13:40.454Z,14.50
2017-11-03T14:16:07.642Z,14.50
2017-11-03T14:18:34.115Z,14.40
2017-11-03T14:21:00.544Z,14.40
2017-11-03T14:23:27.006Z,14.30
2017-11-03T14:25:54.175Z,14.30
2017-11-03T14:28:20.665Z,14.30
2017-11-03T14:30:47.113Z,14.40
2017-11-03T14:33:13.541Z,14.40
2017-11-03T14:35:40.001Z,14.30
2017-11-03T14:38:06.457Z,13.80
2017-11-03T14:40:43.729Z,13.80
2017-11-03T14:43:10.199Z,13.60
2017-11-03T14:45:36.806Z,13.40
2017-11-03T14:48:03.232Z,13.40
2017-11-03T14:50:29.643Z,13.20
2017-11-03T14:52:56.851Z,13.40
2017-11-03T14:55:23.297Z,13.30
2017-11-03T14:57:49.766Z,13.50
2017-11-03T15:00:16.222Z,13.50
2017-11-03T15:02:42.671Z,13.40
2017-11-03T15:05:09.125Z,13.30
2017-11-03T15:07:35.541Z,13.30
2017-11-03T15:10:01.988Z,13.30
2017-11-03T15:12:28.454Z,13.30
2017-11-03T15:14:55.628Z,12.90
2017-11-03T15:17:22.129Z,12.90
2017-11-03T15:19:49.365Z,12.80
2017-11-03T15:22:15.830Z,12.80
2017-11-03T15:24:42.381Z,12.80
2017-11-03T15:27:08.891Z,12.60
2017-11-03T15:29:35.504Z,12.70
2017-11-03T15:32:02.006Z,12.70
2017-11-03T15:34:28.464Z,12.70
2017-11-03T15:36:54.921Z,12.70
2017-11-03T15:39:21.409Z,12.70
2017-11-03T15:41:47.842Z,12.60
2017-11-03T15:44:14.310Z,12.60
2017-11-03T15:46:40.831Z,12.60
2017-11-03T15:49:07.286Z,12.50
2017-11-03T15:51:34.525Z,12.30
2017-11-03T15:54:01.021Z,12.20
2017-11-03T15:56:27.541Z,12.10
2017-11-03T15:58:54.031Z,11.80
2017-11-03T16:01:21.222Z,11.70
2017-11-03T16:03:47.710Z,11.70
2017-11-03T16:06:14.138Z,11.70
2017-11-03T16:08:40.668Z,11.80
2017-11-03T16:11:07.103Z,11.70
2017-11-03T16:13:33.550Z,11.60
2017-11-03T16:16:00.087Z,11.40
2017-11-03T16:18:26.547Z,11.20
2017-11-03T16:20:53.769Z,10.90
2017-11-03T16:23:20.193Z,10.90
2017-11-03T16:25:46.666Z,10.60
2017-11-03T16:28:13.082Z,10.50
2017-11-03T16:30:39.538Z,10.40
2017-11-03T16:33:06.766Z,10.10
2017-11-03T16:35:33.286Z,10.10
2017-11-03T16:37:59.720Z,10.10
2017-11-03T16:40:26.960Z,9.80
2017-11-03T16:42:53.441Z,9.80
2017-11-03T16:45:20.667Z,9.70
2017-11-03T16:47:47.294Z,9.70
2017-11-03T16:50:13.783Z,9.60
2017-11-03T16:52:40.250Z,9.60
2017-11-03T16:55:06.757Z,9.60
2017-11-03T16:57:33.312Z,9.50
2017-11-03T16:59:59.809Z,9.50
2017-11-03T17:02:26.355Z,9.50
2017-11-03T17:04:52.960Z,9.50
2017-11-03T17:07:20.211Z,9.40
2017-11-03T17:09:47.414Z,9.50
2017-11-03T17:12:13.914Z,9.50
2017-11-03T17:14:40.394Z,9.40
2017-11-03T17:17:06.919Z,9.40
2017-11-03T17:19:33.350Z,9.30
2017-11-03T17:21:59.833Z,9.20
2017-11-03T17:24:26.318Z,9.20
2017-11-03T17:26:53.491Z,9.20
2017-11-03T17:29:19.940Z,9.20
2017-11-03T17:31:46.398Z,9.20
2017-11-03T17:34:12.878Z,9.10
2017-11-03T17:36:39.373Z,9.10
2017-11-03T17:39:05.817Z,9.10
2017-11-03T17:41:32.354Z,9.10
2017-11-03T17:43:58.835Z,9.10
2017-11-03T17:46:25.396Z,9.00
2017-11-03T17:48:51.911Z,9.00
2017-11-03T17:51:18.390Z,9.00
2017-11-03T17:53:44.867Z,9.00
2017-11-03T17:56:12.093Z,8.90
2017-11-03T17:58:39.390Z,8.90
2017-11-03T18:01:06.596Z,8.90
2017-11-03T18:03:33.095Z,8.90
2017-11-03T18:05:59.599Z,8.90
2017-11-03T18:08:26.080Z,8.90
2017-11-03T18:10:52.678Z,8.80
2017-11-03T18:13:19.975Z,8.80
2017-11-03T18:15:46.470Z,8.80
2017-11-03T18:18:13.710Z,8.80
2017-11-03T18:20:40.222Z,8.70
2017-11-03T18:23:06.690Z,8.70
2017-11-03T18:25:33.896Z,8.60
2017-11-03T18:28:00.386Z,8.60
2017-11-03T18:30:26.958Z,8.60
2017-11-03T18:32:53.445Z,8.60
2017-11-03T18:35:19.970Z,8.60
2017-11-03T18:37:46.482Z,8.60
2017-11-03T18:40:13.006Z,8.60
2017-11-03T18:42:39.487Z,8.60
2017-11-03T18:45:05.989Z,8.60
2017-11-03T18:47:32.447Z,8.50
2017-11-03T18:49:58.946Z,8.50
2017-11-03T18:52:25.466Z,8.40
2017-11-03T18:54:51.927Z,8.40
2017-11-03T18:57:19.144Z,8.40
2017-11-03T18:59:45.678Z,8.40
2017-11-03T19:02:17.140Z,8.40
2017-11-03T19:04:43.602Z,8.30
2017-11-03T19:07:10.061Z,8.30
2017-11-03T19:09:36.701Z,8.20
2017-11-03T19:12:03.206Z,8.20
2017-11-03T19:14:29.673Z,8.20
2017-11-03T19:16:56.837Z,8.00
2017-11-03T19:19:23.333Z,8.00
2017-11-03T19:21:49.795Z,8.10
2017-11-03T19:24:16.285Z,8.10
2017-11-03T19:26:42.799Z,8.00
2017-11-03T19:29:09.242Z,8.00
2017-11-03T19:31:35.691Z,8.00
2017-11-03T19:34:02.933Z,7.90
2017-11-03T19:36:29.411Z,7.90
2017-11-03T19:38:55.854Z,8.00
2017-11-03T19:41:22.336Z,8.00
2017-11-03T19:43:48.838Z,8.00
2017-11-03T19:46:15.355Z,8.00
2017-11-03T19:48:41.914Z,7.90
2017-11-03T19:51:08.413Z,7.90
2017-11-03T19:53:35.658Z,7.80
2017-11-03T19:56:02.105Z,7.80
2017-11-03T19:58:28.629Z,7.80
2017-11-03T20:00:55.858Z,7.80
2017-11-03T20:03:22.314Z,7.80
2017-11-03T20:05:49.547Z,7.90
2017-11-03T20:08:16.021Z,7.80
2017-11-03T20:10:42.549Z,7.90
2017-11-03T20:13:09.022Z,7.80
2017-11-03T20:15:35.496Z,7.90
2017-11-03T20:18:02.341Z,7.80
2017-11-03T20:20:29.534Z,7.80
2017-11-03T20:22:55.978Z,7.80
2017-11-03T20:25:22.471Z,7.80
2017-11-03T20:27:48.922Z,7.70
2017-11-03T20:30:15.419Z,7.70
2017-11-03T20:32:42.655Z,7.70
2017-11-03T20:35:09.230Z,7.70
2017-11-03T20:37:35.694Z,7.60
2017-11-03T20:40:02.327Z,7.60
2017-11-03T20:42:29.590Z,7.60
2017-11-03T20:44:56.975Z,7.50
2017-11-03T20:47:25.997Z,7.50
2017-11-03T20:49:52.819Z,7.50
2017-11-03T20:52:20.030Z,7.40
2017-11-03T20:54:46.455Z,7.40
2017-11-03T20:57:12.935Z,7.40
2017-11-03T20:59:39.388Z,7.40
2017-11-03T21:02:05.930Z,7.40
2017-11-03T21:04:32.422Z,7.30
2017-11-03T21:06:58.898Z,7.30
2017-11-03T21:09:25.397Z,7.30
2017-11-03T21:11:51.870Z,7.30
2017-11-03T21:14:18.329Z,7.30
2017-11-03T21:16:44.828Z,7.20
2017-11-03T21:19:11.270Z,7.20
2017-11-03T21:21:38.538Z,7.10
2017-11-03T21:24:04.997Z,7.10
2017-11-03T21:26:31.466Z,7.10
2017-11-03T21:28:57.934Z,7.10
2017-11-03T21:31:24.417Z,7.10
2017-11-03T21:33:51.661Z,7.10
2017-11-03T21:36:18.143Z,7.10
2017-11-03T21:38:45.377Z,7.00
2017-11-03T21:41:11.896Z,7.00
2017-11-03T21:43:39.199Z,7.00
2017-11-03T21:46:05.652Z,7.00
2017-11-03T21:48:32.115Z,7.00
2017-11-03T21:50:58.585Z,6.90
2017-11-03T21:53:25.060Z,6.90
2017-11-03T21:55:52.307Z,6.90
2017-11-03T21:58:19.548Z,6.80
2017-11-03T22:00:46.024Z,6.80
2017-11-03T22:03:12.494Z,6.80
2017-11-03T22:05:38.983Z,6.80
2017-11-03T22:08:05.473Z,6.80
2017-11-03T22:10:31.960Z,6.70
2017-11-03T22:12:59.149Z,6.60
2017-11-03T22:15:25.593Z,6.60
2017-11-03T22:17:52.054Z,6.60
2017-11-03T22:20:18.498Z,6.60
2017-11-03T22:22:45.713Z,6.40
2017-11-03T22:25:12.281Z,6.30
2017-11-03T22:27:38.746Z,6.40
2017-11-03T22:30:05.191Z,6.30
2017-11-03T22:32:31.667Z,6.10
2017-11-03T22:34:58.120Z,6.00
2017-11-03T22:37:25.362Z,6.00
2017-11-03T22:39:51.826Z,6.00
2017-11-03T22:42:18.330Z,6.00
2017-11-03T22:44:45.607Z,6.00
2017-11-03T22:47:12.100Z,5.90
2017-11-03T22:49:38.567Z,6.00
2017-11-03T22:52:05.838Z,6.00
2017-11-03T22:54:32.358Z,6.00
2017-11-03T22:56:59.562Z,6.00
2017-11-03T22:59:26.022Z,6.00
2017-11-03T23:01:52.480Z,5.90
2017-11-03T23:04:19.668Z,5.80
2017-11-03T23:06:46.194Z,5.80
2017-11-03T23:09:12.668Z,5.70
2017-11-03T23:11:39.106Z,5.70
2017-11-03T23:14:05.602Z,5.70
2017-11-03T23:16:32.027Z,5.70
2017-11-03T23:18:58.520Z,5.60
2017-11-03T23:21:25.011Z,5.60
2017-11-03T23:23:51.476Z,5.60
2017-11-03T23:26:17.994Z,5.50
2017-11-03T23:28:44.454Z,5.50
2017-11-03T23:31:10.902Z,5.40
2017-11-03T23:33:38.097Z,5.50
2017-11-03T23:36:04.530Z,5.50
2017-11-03T23:38:32.018Z,5.50
2017-11-03T23:40:59.210Z,5.50
2017-11-03T23:43:25.664Z,5.50
2017-11-03T23:45:52.139Z,5.50
2017-11-03T23:48:18.610Z,5.40
2017-11-03T23:50:45.059Z,5.40
2017-11-03T23:53:11.534Z,5.40
2017-11-03T23:55:38.790Z,5.50
2017-11-03T23:58:05.267Z,5.40
